MAPA DE AEROPUERTO

INFORMACIÓN METAR y TAF

METAR FOR LEAM
ADDS - METARS form results

(0916 UTC 05 December 2020)
Data provider http://aviationweather.gov/metar/data/
 
METAR text: LEAM 050900Z 34014KT 310V010 CAVOK 12/M03 Q1003
Conditions at: LEAM (ALMERIA AIRPORT , ES) observed 0900 UTC 05 December 2020
Temperature: 12.0°C (54°F)
Dewpoint: -3.0°C (27°F) [RH = 35%]
Pressure (altimeter): 29.62 inches Hg (1003.0 mb)
Winds: from the NNW (340 degrees) at 16 MPH (14 knots; 7.2 m/s)
Visibility: 6 or more miles (10+ km)
Ceiling: ceiling and visibility are OK
Clouds: unknown
Weather: no significant weather observed at this time

METAR text: LEAM 050830Z 34016KT CAVOK 11/M03 Q1003
Conditions at: LEAM (ALMERIA AIRPORT , ES) observed 0830 UTC 05 December 2020
Temperature: 11.0°C (52°F)
Dewpoint: -3.0°C (27°F) [RH = 37%]
Pressure (altimeter): 29.62 inches Hg (1003.0 mb)
Winds: from the NNW (340 degrees) at 18 MPH (16 knots; 8.2 m/s)
Visibility: 6 or more miles (10+ km)
Ceiling: ceiling and visibility are OK
Clouds: unknown
Weather: no significant weather observed at this time

Forecast for: LEAM (ALMERIA AIRPORT , ES)
Text: TAF LEAM 050800Z 0509/0609 34015KT 9999 FEW030 TX17/0511Z TN10/0601Z
Forecast period: 0900 UTC 05 December 2020 to 0900 UTC 06 December 2020
Forecast type: FROM: standard forecast or significant change
Winds: from the NNW (340 degrees) at 17 MPH (15 knots; 7.7 m/s)
Visibility: 6 or more miles (10+ km)
Ceiling: at least 12,000 feet AGL
Clouds: few clouds at 3000 feet AGL
Weather: no significant weather forecast for this period
Text: TEMPO 0509/0518 34018G35KT
Forecast period: 0900 to 1800 UTC 05 December 2020
Forecast type: TEMPORARY: The following changes expected for less than half the time period
Winds: from the NNW (340 degrees) at 21 MPH (18 knots; 9.3 m/s)
gusting to 40 MPH (35 knots; 18.0 m/s)
Visibility: missing
Ceiling: unknown
Clouds: missing
Weather: no significant weather forecast for this period
Text: PROB30
Forecast period: 0900 to 1300 UTC 05 December 2020
Forecast type: TEMPORARY: The following changes expected for less than half the time period
Winds: from the NNW (340 degrees) at 34 MPH (30 knots; 15.4 m/s)
gusting to 49 MPH (43 knots; 22.1 m/s)
Visibility: missing
Ceiling: unknown
Clouds: missing
Weather: no significant weather forecast for this period